sensor_id;sensor_type;location;lat;lon;timestamp;pressure;altitude;pressure_sealevel;temperature;humidity
29941;BME280;16801;53.562;10.038;2023-04-15T00:02:51;100930.31;;;9.65;75.33
29941;BME280;16801;53.562;10.038;2023-04-15T00:06:14;100924.75;;;9.68;75.32
29941;BME280;16801;53.562;10.038;2023-04-15T00:09:34;100931.28;;;9.56;75.92
29941;BME280;16801;53.562;10.038;2023-04-15T00:12:57;100928.78;;;9.54;76.14
29941;BME280;16801;53.562;10.038;2023-04-15T00:16:17;100919.91;;;9.55;76.23
29941;BME280;16801;53.562;10.038;2023-04-15T00:19:40;100916.59;;;9.53;76.57
29941;BME280;16801;53.562;10.038;2023-04-15T00:23:01;100917.44;;;9.54;76.75
29941;BME280;16801;53.562;10.038;2023-04-15T00:26:23;100915.31;;;9.57;76.87
29941;BME280;16801;53.562;10.038;2023-04-15T00:29:44;100918.75;;;9.58;76.73
29941;BME280;16801;53.562;10.038;2023-04-15T00:33:05;100916.63;;;9.62;76.89
29941;BME280;16801;53.562;10.038;2023-04-15T00:36:28;100920.09;;;9.62;77.25
29941;BME280;16801;53.562;10.038;2023-04-15T00:39:50;100918.59;;;9.59;77.17
29941;BME280;16801;53.562;10.038;2023-04-15T00:43:10;100912.97;;;9.46;77.87
29941;BME280;16801;53.562;10.038;2023-04-15T00:46:37;100910.81;;;9.50;78.38
29941;BME280;16801;53.562;10.038;2023-04-15T00:49:58;100905.56;;;9.50;78.24
29941;BME280;16801;53.562;10.038;2023-04-15T00:53:20;100911.00;;;9.48;78.43
29941;BME280;16801;53.562;10.038;2023-04-15T00:56:41;100911.44;;;9.36;79.15
29941;BME280;16801;53.562;10.038;2023-04-15T01:00:02;100917.88;;;9.41;79.38
29941;BME280;16801;53.562;10.038;2023-04-15T01:03:24;100920.38;;;9.43;79.69
29941;BME280;16801;53.562;10.038;2023-04-15T01:06:45;100917.41;;;9.46;79.34
29941;BME280;16801;53.562;10.038;2023-04-15T01:10:08;100918.72;;;9.42;79.83
29941;BME280;16801;53.562;10.038;2023-04-15T01:13:31;100910.66;;;9.43;79.92
29941;BME280;16801;53.562;10.038;2023-04-15T01:16:53;100908.34;;;9.40;80.17
29941;BME280;16801;53.562;10.038;2023-04-15T01:20:15;100909.47;;;9.38;80.49
29941;BME280;16801;53.562;10.038;2023-04-15T01:23:37;100907.34;;;9.41;80.50
29941;BME280;16801;53.562;10.038;2023-04-15T01:27:01;100903.22;;;9.39;80.53
29941;BME280;16801;53.562;10.038;2023-04-15T01:30:23;100902.34;;;9.30;81.27
29941;BME280;16801;53.562;10.038;2023-04-15T01:33:45;100895.28;;;9.31;81.57
29941;BME280;16801;53.562;10.038;2023-04-15T01:37:07;100895.94;;;9.33;81.40
29941;BME280;16801;53.562;10.038;2023-04-15T01:40:28;100882.63;;;9.34;81.36
29941;BME280;16801;53.562;10.038;2023-04-15T01:43:52;100880.31;;;9.31;82.29
29941;BME280;16801;53.562;10.038;2023-04-15T01:47:13;100880.50;;;9.38;82.09
29941;BME280;16801;53.562;10.038;2023-04-15T01:50:35;100877.50;;;9.33;82.33
29941;BME280;16801;53.562;10.038;2023-04-15T01:53:56;100874.06;;;9.32;81.96
29941;BME280;16801;53.562;10.038;2023-04-15T01:57:17;100874.22;;;9.31;82.43
29941;BME280;16801;53.562;10.038;2023-04-15T02:00:39;100872.75;;;9.36;82.34
29941;BME280;16801;53.562;10.038;2023-04-15T02:04:01;100863.34;;;9.34;82.19
29941;BME280;16801;53.562;10.038;2023-04-15T02:07:24;100865.19;;;9.41;82.24
29941;BME280;16801;53.562;10.038;2023-04-15T02:10:47;100864.00;;;9.27;83.31
29941;BME280;16801;53.562;10.038;2023-04-15T02:14:08;100860.72;;;9.25;83.63
29941;BME280;16801;53.562;10.038;2023-04-15T02:17:32;100859.75;;;9.35;83.03
29941;BME280;16801;53.562;10.038;2023-04-15T02:20:54;100859.59;;;9.36;82.60
29941;BME280;16801;53.562;10.038;2023-04-15T02:24:16;100865.94;;;9.17;83.70
29941;BME280;16801;53.562;10.038;2023-04-15T02:27:37;100873.22;;;9.23;83.95
29941;BME280;16801;53.562;10.038;2023-04-15T02:30:58;100864.66;;;9.30;83.88
29941;BME280;16801;53.562;10.038;2023-04-15T02:34:21;100865.16;;;9.33;83.36
29941;BME280;16801;53.562;10.038;2023-04-15T02:37:42;100870.25;;;9.26;83.87
29941;BME280;16801;53.562;10.038;2023-04-15T02:41:05;100874.31;;;9.13;85.15
29941;BME280;16801;53.562;10.038;2023-04-15T02:44:28;100869.19;;;9.03;85.49
29941;BME280;16801;53.562;10.038;2023-04-15T02:47:52;100861.00;;;9.14;85.27
29941;BME280;16801;53.562;10.038;2023-04-15T02:51:15;100863.31;;;9.17;85.57
29941;BME280;16801;53.562;10.038;2023-04-15T02:54:38;100857.91;;;9.27;85.29
29941;BME280;16801;53.562;10.038;2023-04-15T02:57:59;100868.44;;;9.27;85.18
29941;BME280;16801;53.562;10.038;2023-04-15T03:01:20;100868.63;;;9.34;84.98
29941;BME280;16801;53.562;10.038;2023-04-15T03:04:41;100858.72;;;9.19;85.71
29941;BME280;16801;53.562;10.038;2023-04-15T03:08:03;100874.16;;;9.14;86.23
29941;BME280;16801;53.562;10.038;2023-04-15T03:11:24;100856.59;;;9.23;85.75
29941;BME280;16801;53.562;10.038;2023-04-15T03:14:45;100861.03;;;9.22;86.08
29941;BME280;16801;53.562;10.038;2023-04-15T03:18:06;100865.97;;;9.25;85.56
29941;BME280;16801;53.562;10.038;2023-04-15T03:21:27;100861.34;;;9.27;85.51
29941;BME280;16801;53.562;10.038;2023-04-15T03:24:50;100860.53;;;9.27;85.78
29941;BME280;16801;53.562;10.038;2023-04-15T03:28:10;100855.91;;;9.21;86.51
29941;BME280;16801;53.562;10.038;2023-04-15T03:31:31;100858.91;;;9.26;86.43
29941;BME280;16801;53.562;10.038;2023-04-15T03:34:52;100855.09;;;9.20;86.78
29941;BME280;16801;53.562;10.038;2023-04-15T03:38:13;100859.06;;;9.24;86.27
29941;BME280;16801;53.562;10.038;2023-04-15T03:41:35;100858.91;;;9.26;86.41
29941;BME280;16801;53.562;10.038;2023-04-15T03:44:56;100862.03;;;9.30;86.81
29941;BME280;16801;53.562;10.038;2023-04-15T03:48:17;100858.88;;;9.18;87.63
29941;BME280;16801;53.562;10.038;2023-04-15T03:51:38;100850.31;;;9.16;87.54
29941;BME280;16801;53.562;10.038;2023-04-15T03:54:59;100854.84;;;9.06;88.92
29941;BME280;16801;53.562;10.038;2023-04-15T03:58:21;100856.34;;;9.08;88.94
29941;BME280;16801;53.562;10.038;2023-04-15T04:01:42;100857.84;;;9.03;89.47
29941;BME280;16801;53.562;10.038;2023-04-15T04:05:03;100861.00;;;9.14;89.60
29941;BME280;16801;53.562;10.038;2023-04-15T04:08:24;100850.81;;;9.27;89.00
29941;BME280;16801;53.562;10.038;2023-04-15T04:11:46;100862.03;;;9.30;88.36
29941;BME280;16801;53.562;10.038;2023-04-15T04:15:09;100860.53;;;9.27;88.83
29941;BME280;16801;53.562;10.038;2023-04-15T04:18:31;100857.25;;;9.33;88.93
29941;BME280;16801;53.562;10.038;2023-04-15T04:21:52;100863.41;;;9.42;88.13
29941;BME280;16801;53.562;10.038;2023-04-15T04:25:13;100853.19;;;9.39;87.77
29941;BME280;16801;53.562;10.038;2023-04-15T04:28:34;100862.06;;;9.38;87.79
29941;BME280;16801;53.562;10.038;2023-04-15T04:31:56;100864.84;;;9.36;88.07
29941;BME280;16801;53.562;10.038;2023-04-15T04:35:17;100867.31;;;9.38;88.28
29941;BME280;16801;53.562;10.038;2023-04-15T04:38:37;100866.34;;;9.39;88.49
29941;BME280;16801;53.562;10.038;2023-04-15T04:41:58;100864.81;;;9.28;88.44
29941;BME280;16801;53.562;10.038;2023-04-15T04:45:19;100871.41;;;9.24;89.08
29941;BME280;16801;53.562;10.038;2023-04-15T04:48:42;100867.59;;;9.18;89.90
29941;BME280;16801;53.562;10.038;2023-04-15T04:52:03;100868.72;;;9.16;90.41
29941;BME280;16801;53.562;10.038;2023-04-15T04:55:23;100865.94;;;9.17;91.28
29941;BME280;16801;53.562;10.038;2023-04-15T04:58:44;100865.78;;;9.19;91.28
29941;BME280;16801;53.562;10.038;2023-04-15T05:02:05;100867.59;;;9.18;91.98
29941;BME280;16801;53.562;10.038;2023-04-15T05:05:27;100861.66;;;9.16;92.33
29941;BME280;16801;53.562;10.038;2023-04-15T05:08:48;100865.63;;;9.20;92.31
29941;BME280;16801;53.562;10.038;2023-04-15T05:12:09;100864.34;;;9.24;91.93
29941;BME280;16801;53.562;10.038;2023-04-15T05:15:33;100870.25;;;9.26;92.28
29941;BME280;16801;53.562;10.038;2023-04-15T05:18:55;100865.16;;;9.25;92.65
29941;BME280;16801;53.562;10.038;2023-04-15T05:22:17;100867.13;;;9.31;92.56
29941;BME280;16801;53.562;10.038;2023-04-15T05:25:38;100874.56;;;9.36;92.61
29941;BME280;16801;53.562;10.038;2023-04-15T05:28:59;100867.81;;;9.33;92.60
29941;BME280;16801;53.562;10.038;2023-04-15T05:32:20;100871.13;;;9.43;92.20
29941;BME280;16801;53.562;10.038;2023-04-15T05:35:40;100876.06;;;9.38;92.31
29941;BME280;16801;53.562;10.038;2023-04-15T05:39:03;100876.53;;;9.34;92.52
29941;BME280;16801;53.562;10.038;2023-04-15T05:42:23;100874.56;;;9.36;92.45
29941;BME280;16801;53.562;10.038;2023-04-15T05:45:44;100863.34;;;9.34;92.68
29941;BME280;16801;53.562;10.038;2023-04-15T05:49:05;100871.09;;;9.35;92.99
29941;BME280;16801;53.562;10.038;2023-04-15T05:52:26;100880.84;;;9.43;92.87
29941;BME280;16801;53.562;10.038;2023-04-15T05:55:48;100874.22;;;9.31;93.10
29941;BME280;16801;53.562;10.038;2023-04-15T05:59:09;100883.28;;;9.36;93.34
29941;BME280;16801;53.562;10.038;2023-04-15T06:02:30;100892.38;;;9.42;92.97
29941;BME280;16801;53.562;10.038;2023-04-15T06:05:51;100889.09;;;9.48;93.16
29941;BME280;16801;53.562;10.038;2023-04-15T06:09:11;100898.97;;;9.46;92.70
29941;BME280;16801;53.562;10.038;2023-04-15T06:12:33;100898.31;;;9.52;92.91
29941;BME280;16801;53.562;10.038;2023-04-15T06:15:54;100895.69;;;9.52;92.73
29941;BME280;16801;53.562;10.038;2023-04-15T06:19:15;100901.47;;;9.55;93.07
29941;BME280;16801;53.562;10.038;2023-04-15T06:22:37;100902.13;;;9.57;92.80
29941;BME280;16801;53.562;10.038;2023-04-15T06:25:58;100904.91;;;9.56;92.63
29941;BME280;16801;53.562;10.038;2023-04-15T06:29:21;100910.34;;;9.54;93.25
29941;BME280;16801;53.562;10.038;2023-04-15T06:32:42;100912.31;;;9.52;93.04
29941;BME280;16801;53.562;10.038;2023-04-15T06:36:02;100920.88;;;9.54;93.16
29941;BME280;16801;53.562;10.038;2023-04-15T06:39:23;100915.31;;;9.57;92.57
29941;BME280;16801;53.562;10.038;2023-04-15T06:42:44;100917.16;;;9.65;93.03
29941;BME280;16801;53.562;10.038;2023-04-15T06:46:06;100921.91;;;9.62;92.74
29941;BME280;16801;53.562;10.038;2023-04-15T06:49:27;100916.50;;;9.71;92.53
29941;BME280;16801;53.562;10.038;2023-04-15T06:52:48;100922.94;;;9.77;92.00
29941;BME280;16801;53.562;10.038;2023-04-15T06:56:09;100927.06;;;9.79;92.09
29941;BME280;16801;53.562;10.038;2023-04-15T06:59:30;100924.59;;;9.78;91.56
29941;BME280;16801;53.562;10.038;2023-04-15T07:02:52;100933.38;;;10.11;93.90
29941;BME280;16801;53.562;10.038;2023-04-15T07:06:14;100938.66;;;10.11;90.72
29941;BME280;16801;53.562;10.038;2023-04-15T07:09:34;100938.97;;;10.00;91.43
29941;BME280;16801;53.562;10.038;2023-04-15T07:12:56;100939.59;;;9.85;91.16
29941;BME280;16801;53.562;10.038;2023-04-15T07:16:17;100950.97;;;9.86;90.79
29941;BME280;16801;53.562;10.038;2023-04-15T07:19:39;100945.22;;;9.90;90.75
29941;BME280;16801;53.562;10.038;2023-04-15T07:23:00;100942.59;;;9.99;90.66
29941;BME280;16801;53.562;10.038;2023-04-15T07:26:21;100940.25;;;9.95;90.48
29941;BME280;16801;53.562;10.038;2023-04-15T07:29:42;100950.97;;;9.86;90.87
29941;BME280;16801;53.562;10.038;2023-04-15T07:33:03;100947.19;;;9.97;90.62
29941;BME280;16801;53.562;10.038;2023-04-15T07:36:25;100952.66;;;10.03;90.64
29941;BME280;16801;53.562;10.038;2023-04-15T07:39:47;100958.41;;;9.99;89.98
29941;BME280;16801;53.562;10.038;2023-04-15T07:43:08;100961.72;;;9.92;90.16
29941;BME280;16801;53.562;10.038;2023-04-15T07:46:29;100965.00;;;10.03;90.56
29941;BME280;16801;53.562;10.038;2023-04-15T07:49:50;100962.38;;;10.03;90.13
29941;BME280;16801;53.562;10.038;2023-04-15T07:53:12;100966.66;;;10.04;90.43
29941;BME280;16801;53.562;10.038;2023-04-15T07:56:34;100974.72;;;10.02;90.26
29941;BME280;16801;53.562;10.038;2023-04-15T07:59:54;100972.09;;;10.02;90.30
29941;BME280;16801;53.562;10.038;2023-04-15T08:03:15;100972.91;;;10.03;90.20
29941;BME280;16801;53.562;10.038;2023-04-15T08:06:36;100981.00;;;10.01;90.45
29941;BME280;16801;53.562;10.038;2023-04-15T08:09:59;100979.56;;;10.15;89.93
29941;BME280;16801;53.562;10.038;2023-04-15T08:13:20;100979.06;;;10.19;89.59
29941;BME280;16801;53.562;10.038;2023-04-15T08:16:41;100983.03;;;10.15;89.96
29941;BME280;16801;53.562;10.038;2023-04-15T08:20:03;100990.13;;;10.23;90.07
29941;BME280;16801;53.562;10.038;2023-04-15T08:23:25;100995.44;;;10.31;89.81
29941;BME280;16801;53.562;10.038;2023-04-15T08:26:47;100992.94;;;10.94;91.49
29941;BME280;16801;53.562;10.038;2023-04-15T08:30:08;100982.88;;;11.53;89.76
29941;BME280;16801;53.562;10.038;2023-04-15T08:33:30;100989.72;;;11.87;88.48
29941;BME280;16801;53.562;10.038;2023-04-15T08:36:51;100990.50;;;11.95;87.64
29941;BME280;16801;53.562;10.038;2023-04-15T08:40:12;100995.31;;;11.92;83.39
29941;BME280;16801;53.562;10.038;2023-04-15T08:43:38;100990.81;;;11.53;83.43
29941;BME280;16801;53.562;10.038;2023-04-15T08:47:02;100993.34;;;11.39;85.25
29941;BME280;16801;53.562;10.038;2023-04-15T08:50:25;101002.50;;;11.12;85.97
29941;BME280;16801;53.562;10.038;2023-04-15T08:53:48;101001.38;;;11.06;86.27
29941;BME280;16801;53.562;10.038;2023-04-15T08:57:10;101007.44;;;11.15;86.43
29941;BME280;16801;53.562;10.038;2023-04-15T09:00:33;101005.16;;;11.04;86.58
29941;BME280;16801;53.562;10.038;2023-04-15T09:03:55;101008.31;;;10.91;86.96
29941;BME280;16801;53.562;10.038;2023-04-15T09:07:16;101023.97;;;10.92;87.52
29941;BME280;16801;53.562;10.038;2023-04-15T09:10:37;101020.34;;;10.85;87.23
29941;BME280;16801;53.562;10.038;2023-04-15T09:13:58;101029.09;;;10.86;87.49
29941;BME280;16801;53.562;10.038;2023-04-15T09:17:20;101024.47;;;10.96;87.81
29941;BME280;16801;53.562;10.038;2023-04-15T09:20:43;101029.69;;;11.37;86.19
29941;BME280;16801;53.562;10.038;2023-04-15T09:24:04;101031.19;;;11.39;85.32
29941;BME280;16801;53.562;10.038;2023-04-15T09:27:25;101025.00;;;11.55;85.25
29941;BME280;16801;53.562;10.038;2023-04-15T09:30:46;101025.66;;;11.57;84.88
29941;BME280;16801;53.562;10.038;2023-04-15T09:34:12;101009.88;;;11.88;84.56
29941;BME280;16801;53.562;10.038;2023-04-15T09:37:36;101021.50;;;12.41;82.02
29941;BME280;16801;53.562;10.038;2023-04-15T09:40:57;101021.06;;;12.75;80.87
29941;BME280;16801;53.562;10.038;2023-04-15T09:44:21;101021.44;;;13.09;79.42
29941;BME280;16801;53.562;10.038;2023-04-15T09:47:43;101020.00;;;13.21;78.78
29941;BME280;16801;53.562;10.038;2023-04-15T09:51:05;101022.53;;;12.77;78.96
29941;BME280;16801;53.562;10.038;2023-04-15T09:54:32;101034.78;;;12.78;78.98
29941;BME280;16801;53.562;10.038;2023-04-15T09:57:53;101032.09;;;13.01;78.53
29941;BME280;16801;53.562;10.038;2023-04-15T10:01:14;101032.97;;;12.93;78.87
29941;BME280;16801;53.562;10.038;2023-04-15T10:04:38;101036.44;;;13.17;78.85
29941;BME280;16801;53.562;10.038;2023-04-15T10:08:01;101042.97;;;13.44;77.76
29941;BME280;16801;53.562;10.038;2023-04-15T10:11:23;101037.88;;;14.08;75.74
29941;BME280;16801;53.562;10.038;2023-04-15T10:14:47;101032.19;;;14.47;73.75
29941;BME280;16801;53.562;10.038;2023-04-15T10:18:09;101033.94;;;15.31;65.39
29941;BME280;16801;53.562;10.038;2023-04-15T10:21:30;101038.25;;;15.32;64.74
29941;BME280;16801;53.562;10.038;2023-04-15T10:24:55;101043.78;;;15.59;62.88
29941;BME280;16801;53.562;10.038;2023-04-15T10:28:16;101038.06;;;15.40;62.97
29941;BME280;16801;53.562;10.038;2023-04-15T10:31:37;101044.75;;;15.02;64.27
29941;BME280;16801;53.562;10.038;2023-04-15T10:34:59;101049.16;;;15.16;64.35
29941;BME280;16801;53.562;10.038;2023-04-15T10:38:32;101045.22;;;15.33;63.67
29941;BME280;16801;53.562;10.038;2023-04-15T10:42:06;101049.22;;;15.23;63.58
29941;BME280;16801;53.562;10.038;2023-04-15T10:45:31;101052.06;;;15.21;63.80
29941;BME280;16801;53.562;10.038;2023-04-15T10:48:52;101050.56;;;15.40;63.25
29941;BME280;16801;53.562;10.038;2023-04-15T10:52:15;101055.28;;;15.17;62.58
29941;BME280;16801;53.562;10.038;2023-04-15T10:55:36;101044.56;;;16.00;60.74
29941;BME280;16801;53.562;10.038;2023-04-15T10:58:59;101047.50;;;16.19;59.15
29941;BME280;16801;53.562;10.038;2023-04-15T11:02:20;101048.88;;;15.60;60.57
29941;BME280;16801;53.562;10.038;2023-04-15T11:05:49;101051.22;;;15.77;59.99
29941;BME280;16801;53.562;10.038;2023-04-15T11:09:29;101055.59;;;15.28;60.99
29941;BME280;16801;53.562;10.038;2023-04-15T11:12:52;101053.06;;;14.92;62.38
29941;BME280;16801;53.562;10.038;2023-04-15T11:16:14;101067.84;;;14.37;63.00
29941;BME280;16801;53.562;10.038;2023-04-15T11:19:36;101069.84;;;13.99;63.47
29941;BME280;16801;53.562;10.038;2023-04-15T11:22:57;101072.22;;;13.80;63.82
29941;BME280;16801;53.562;10.038;2023-04-15T11:26:18;101071.22;;;13.81;63.84
29941;BME280;16801;53.562;10.038;2023-04-15T11:29:39;101079.66;;;13.69;64.47
29941;BME280;16801;53.562;10.038;2023-04-15T11:33:03;101083.94;;;13.71;65.01
29941;BME280;16801;53.562;10.038;2023-04-15T11:36:24;101090.78;;;13.80;64.42
29941;BME280;16801;53.562;10.038;2023-04-15T11:39:46;101097.09;;;13.79;64.87
29941;BME280;16801;53.562;10.038;2023-04-15T11:43:10;101101.50;;;13.57;64.75
29941;BME280;16801;53.562;10.038;2023-04-15T11:46:31;101104.41;;;13.47;64.63
29941;BME280;16801;53.562;10.038;2023-04-15T11:49:54;101102.88;;;13.53;65.30
29941;BME280;16801;53.562;10.038;2023-04-15T11:53:14;101106.00;;;13.71;64.57
29941;BME280;16801;53.562;10.038;2023-04-15T11:56:35;101098.19;;;14.43;62.38
29941;BME280;16801;53.562;10.038;2023-04-15T11:59:56;101105.81;;;16.07;55.76
29941;BME280;16801;53.562;10.038;2023-04-15T12:03:21;101098.81;;;15.37;56.65
29941;BME280;16801;53.562;10.038;2023-04-15T12:06:44;101103.00;;;14.97;58.47
29941;BME280;16801;53.562;10.038;2023-04-15T12:10:05;101110.13;;;16.01;56.92
29941;BME280;16801;53.562;10.038;2023-04-15T12:13:27;101113.03;;;15.72;55.45
29941;BME280;16801;53.562;10.038;2023-04-15T12:16:49;101118.25;;;15.10;57.70
29941;BME280;16801;53.562;10.038;2023-04-15T12:20:10;101132.53;;;14.45;60.20
29941;BME280;16801;53.562;10.038;2023-04-15T12:23:36;101131.16;;;14.19;61.57
29941;BME280;16801;53.562;10.038;2023-04-15T12:27:01;101138.00;;;14.14;62.36
29941;BME280;16801;53.562;10.038;2023-04-15T12:30:22;101145.72;;;13.94;62.26
29941;BME280;16801;53.562;10.038;2023-04-15T12:33:47;101156.34;;;13.94;62.42
29941;BME280;16801;53.562;10.038;2023-04-15T12:37:10;101145.06;;;13.77;61.97
29941;BME280;16801;53.562;10.038;2023-04-15T12:40:34;101164.19;;;13.87;61.74
29941;BME280;16801;53.562;10.038;2023-04-15T12:43:54;101162.19;;;13.89;60.83
29941;BME280;16801;53.562;10.038;2023-04-15T12:47:15;101164.09;;;14.10;59.80
29941;BME280;16801;53.562;10.038;2023-04-15T12:50:36;101170.34;;;14.17;59.89
29941;BME280;16801;53.562;10.038;2023-04-15T12:53:57;101175.91;;;13.93;59.73
29941;BME280;16801;53.562;10.038;2023-04-15T12:57:19;101170.13;;;13.89;60.00
29941;BME280;16801;53.562;10.038;2023-04-15T13:00:40;101172.88;;;14.11;59.61
29941;BME280;16801;53.562;10.038;2023-04-15T13:04:01;101170.97;;;14.19;59.22
29941;BME280;16801;53.562;10.038;2023-04-15T13:07:22;101176.94;;;14.21;58.74
29941;BME280;16801;53.562;10.038;2023-04-15T13:10:43;101176.53;;;14.24;58.48
29941;BME280;16801;53.562;10.038;2023-04-15T13:14:07;101185.44;;;14.17;58.57
29941;BME280;16801;53.562;10.038;2023-04-15T13:17:30;101185.59;;;14.30;63.16
29941;BME280;16801;53.562;10.038;2023-04-15T13:20:51;101191.38;;;14.33;57.79
29941;BME280;16801;53.562;10.038;2023-04-15T13:24:11;101188.75;;;14.19;57.41
29941;BME280;16801;53.562;10.038;2023-04-15T13:27:32;101196.03;;;14.31;57.50
29941;BME280;16801;53.562;10.038;2023-04-15T13:30:55;101196.59;;;14.27;56.94
29941;BME280;16801;53.562;10.038;2023-04-15T13:34:16;101200.81;;;14.36;56.96
29941;BME280;16801;53.562;10.038;2023-04-15T13:37:37;101197.63;;;14.41;55.98
29941;BME280;16801;53.562;10.038;2023-04-15T13:40:58;101195.09;;;14.68;55.24
29941;BME280;16801;53.562;10.038;2023-04-15T13:44:19;101205.81;;;15.11;54.07
29941;BME280;16801;53.562;10.038;2023-04-15T13:47:41;101194.22;;;16.24;51.40
29941;BME280;16801;53.562;10.038;2023-04-15T13:51:02;101192.53;;;17.51;47.23
29941;BME280;16801;53.562;10.038;2023-04-15T13:54:23;101203.34;;;16.90;47.94
29941;BME280;16801;53.562;10.038;2023-04-15T13:57:44;101196.47;;;16.27;49.65
29941;BME280;16801;53.562;10.038;2023-04-15T14:01:05;101205.28;;;17.95;44.52
29941;BME280;16801;53.562;10.038;2023-04-15T14:04:27;101206.97;;;21.61;35.89
29941;BME280;16801;53.562;10.038;2023-04-15T14:07:48;101216.25;;;22.12;34.56
29941;BME280;16801;53.562;10.038;2023-04-15T14:11:09;101213.75;;;20.07;36.88
29941;BME280;16801;53.562;10.038;2023-04-15T14:14:30;101214.22;;;20.41;37.10
29941;BME280;16801;53.562;10.038;2023-04-15T14:17:51;101230.31;;;20.41;37.41
29941;BME280;16801;53.562;10.038;2023-04-15T14:21:13;101221.91;;;20.37;37.89
29941;BME280;16801;53.562;10.038;2023-04-15T14:24:33;101223.88;;;19.62;39.10
29941;BME280;16801;53.562;10.038;2023-04-15T14:27:54;101232.06;;;19.36;40.17
29941;BME280;16801;53.562;10.038;2023-04-15T14:31:15;101238.34;;;19.48;40.85
29941;BME280;16801;53.562;10.038;2023-04-15T14:34:35;101242.91;;;18.71;41.01
29941;BME280;16801;53.562;10.038;2023-04-15T14:37:58;101240.91;;;18.47;41.72
29941;BME280;16801;53.562;10.038;2023-04-15T14:41:18;101244.66;;;18.33;42.07
29941;BME280;16801;53.562;10.038;2023-04-15T14:44:41;101256.97;;;18.34;42.28
29941;BME280;16801;53.562;10.038;2023-04-15T14:48:03;101259.50;;;18.16;42.47
29941;BME280;16801;53.562;10.038;2023-04-15T14:51:28;101259.72;;;18.01;42.57
29941;BME280;16801;53.562;10.038;2023-04-15T14:54:51;101260.31;;;18.29;43.19
29941;BME280;16801;53.562;10.038;2023-04-15T14:58:12;101270.53;;;18.32;41.81
29941;BME280;16801;53.562;10.038;2023-04-15T15:01:33;101270.00;;;17.77;43.00
29941;BME280;16801;53.562;10.038;2023-04-15T15:04:54;101269.38;;;18.02;42.78
29941;BME280;16801;53.562;10.038;2023-04-15T15:08:15;101272.06;;;17.75;43.77
29941;BME280;16801;53.562;10.038;2023-04-15T15:11:37;101286.63;;;17.66;44.81
29941;BME280;16801;53.562;10.038;2023-04-15T15:14:58;101289.56;;;17.17;45.13
29941;BME280;16801;53.562;10.038;2023-04-15T15:18:19;101289.03;;;16.81;46.28
29941;BME280;16801;53.562;10.038;2023-04-15T15:21:40;101297.09;;;16.59;46.92
29941;BME280;16801;53.562;10.038;2023-04-15T15:25:01;101302.19;;;16.54;46.88
29941;BME280;16801;53.562;10.038;2023-04-15T15:28:23;101297.91;;;16.60;46.77
29941;BME280;16801;53.562;10.038;2023-04-15T15:31:44;101305.53;;;17.04;46.09
29941;BME280;16801;53.562;10.038;2023-04-15T15:35:05;101302.97;;;17.30;45.20
29941;BME280;16801;53.562;10.038;2023-04-15T15:38:26;101301.97;;;17.38;44.35
29941;BME280;16801;53.562;10.038;2023-04-15T15:41:48;101308.66;;;16.66;46.38
29941;BME280;16801;53.562;10.038;2023-04-15T15:45:11;101314.09;;;16.24;48.37
29941;BME280;16801;53.562;10.038;2023-04-15T15:48:32;101325.81;;;16.01;49.10
29941;BME280;16801;53.562;10.038;2023-04-15T15:51:53;101332.47;;;15.69;49.91
29941;BME280;16801;53.562;10.038;2023-04-15T15:55:15;101334.38;;;15.76;50.43
29941;BME280;16801;53.562;10.038;2023-04-15T15:58:36;101333.50;;;15.54;51.17
29941;BME280;16801;53.562;10.038;2023-04-15T16:01:58;101340.06;;;15.36;52.19
29941;BME280;16801;53.562;10.038;2023-04-15T16:05:19;101350.84;;;14.99;53.11
29941;BME280;16801;53.562;10.038;2023-04-15T16:08:40;101358.72;;;14.48;54.36
29941;BME280;16801;53.562;10.038;2023-04-15T16:12:01;101362.22;;;14.49;54.65
29941;BME280;16801;53.562;10.038;2023-04-15T16:15:24;101367.91;;;14.60;54.63
29941;BME280;16801;53.562;10.038;2023-04-15T16:18:47;101374.88;;;14.61;54.70
29941;BME280;16801;53.562;10.038;2023-04-15T16:22:07;101371.94;;;14.56;55.34
29941;BME280;16801;53.562;10.038;2023-04-15T16:25:28;101377.59;;;14.53;55.83
29941;BME280;16801;53.562;10.038;2023-04-15T16:28:49;101377.41;;;14.17;57.14
29941;BME280;16801;53.562;10.038;2023-04-15T16:32:10;101387.53;;;13.99;57.96
29941;BME280;16801;53.562;10.038;2023-04-15T16:35:33;101385.03;;;13.97;57.87
29941;BME280;16801;53.562;10.038;2023-04-15T16:38:53;101391.25;;;14.50;60.97
29941;BME280;16801;53.562;10.038;2023-04-15T16:42:14;101397.72;;;14.85;62.64
29941;BME280;16801;53.562;10.038;2023-04-15T16:45:35;101399.06;;;15.25;61.89
29941;BME280;16801;53.562;10.038;2023-04-15T16:48:56;101401.53;;;15.27;58.39
29941;BME280;16801;53.562;10.038;2023-04-15T16:52:18;101409.22;;;15.36;62.33
29941;BME280;16801;53.562;10.038;2023-04-15T16:55:39;101413.25;;;15.62;59.79
29941;BME280;16801;53.562;10.038;2023-04-15T16:59:00;101417.28;;;15.94;60.94
29941;BME280;16801;53.562;10.038;2023-04-15T17:02:20;101417.28;;;15.43;59.93
29941;BME280;16801;53.562;10.038;2023-04-15T17:05:41;101419.66;;;15.53;60.77
29941;BME280;16801;53.562;10.038;2023-04-15T17:09:03;101427.22;;;15.20;56.76
29941;BME280;16801;53.562;10.038;2023-04-15T17:12:24;101424.47;;;14.84;57.41
29941;BME280;16801;53.562;10.038;2023-04-15T17:15:45;101436.69;;;14.41;58.20
29941;BME280;16801;53.562;10.038;2023-04-15T17:19:07;101436.84;;;14.16;58.87
29941;BME280;16801;53.562;10.038;2023-04-15T17:22:28;101444.25;;;13.98;59.27
29941;BME280;16801;53.562;10.038;2023-04-15T17:25:50;101449.66;;;13.82;59.78
29941;BME280;16801;53.562;10.038;2023-04-15T17:29:11;101447.34;;;13.79;60.06